createdAt,value
2022-10-05T00:00:44.845Z,101440.91
2022-10-05T00:03:12.058Z,101439.19
2022-10-05T00:05:38.982Z,101444.34
2022-10-05T00:08:08.680Z,101439.09
2022-10-05T00:10:35.339Z,101445.22
2022-10-05T00:13:02.390Z,101446.13
2022-10-05T00:15:29.341Z,101435.38
2022-10-05T00:17:56.103Z,101439.03
2022-10-05T00:20:24.181Z,101434.63
2022-10-05T00:23:01.797Z,101437.22
2022-10-05T00:25:28.786Z,101443.44
2022-10-05T00:28:00.263Z,101433.94
2022-10-05T00:30:31.151Z,101446.06
2022-10-05T00:32:59.779Z,101433.59
2022-10-05T00:35:28.421Z,101439.78
2022-10-05T00:37:55.461Z,101438.84
2022-10-05T00:40:25.141Z,101434.50
2022-10-05T00:43:06.901Z,101436.34
2022-10-05T00:45:42.268Z,101438.16
2022-10-05T00:48:08.920Z,101446.84
2022-10-05T00:50:54.393Z,101437.16
2022-10-05T00:53:30.422Z,101444.09
2022-10-05T00:56:09.382Z,101442.28
2022-10-05T00:58:51.583Z,101442.28
2022-10-05T01:01:25.936Z,101442.91
2022-10-05T01:03:52.632Z,101451.00
2022-10-05T01:06:44.013Z,101452.91
2022-10-05T01:09:20.145Z,101450.19
2022-10-05T01:11:58.990Z,101447.53
2022-10-05T01:14:43.541Z,101443.94
2022-10-05T01:17:20.618Z,101452.66
2022-10-05T01:19:50.048Z,101452.47
2022-10-05T01:22:19.737Z,101454.19
2022-10-05T01:24:55.622Z,101456.03
2022-10-05T01:27:49.027Z,101453.31
2022-10-05T01:30:17.704Z,101446.78
2022-10-05T01:32:44.299Z,101453.22
2022-10-05T01:35:29.347Z,101449.69
2022-10-05T01:38:05.800Z,101449.72
2022-10-05T01:40:35.578Z,101458.47
2022-10-05T01:43:05.222Z,101463.66
2022-10-05T01:45:34.929Z,101471.41
2022-10-05T01:48:23.107Z,101458.19
2022-10-05T01:51:15.871Z,101461.63
2022-10-05T01:53:42.502Z,101464.28
2022-10-05T01:56:09.158Z,101464.75
2022-10-05T01:58:41.739Z,101464.25
2022-10-05T02:01:14.205Z,101466.94
2022-10-05T02:04:03.953Z,101453.87
2022-10-05T02:06:32.745Z,101459.09
2022-10-05T02:09:03.713Z,101455.78
2022-10-05T02:11:30.591Z,101454.88
2022-10-05T02:14:00.343Z,101459.00
2022-10-05T02:16:46.000Z,101460.75
2022-10-05T02:19:22.184Z,101464.13
2022-10-05T02:21:52.172Z,101465.09
2022-10-05T02:24:22.351Z,101469.88
2022-10-05T02:26:50.111Z,101470.00
2022-10-05T02:29:17.600Z,101465.81
2022-10-05T02:31:57.707Z,101459.94
2022-10-05T02:34:26.101Z,101463.38
2022-10-05T02:37:04.120Z,101468.66
2022-10-05T02:39:40.501Z,101468.50
2022-10-05T02:42:18.361Z,101459.72
2022-10-05T02:45:04.671Z,101464.06
2022-10-05T02:47:36.466Z,101469.38
2022-10-05T02:50:03.101Z,101460.66
2022-10-05T02:52:33.229Z,101456.87
2022-10-05T02:55:19.781Z,101451.91
2022-10-05T02:58:04.113Z,101452.81
2022-10-05T03:00:34.385Z,101451.91
2022-10-05T03:03:09.020Z,101452.78
2022-10-05T03:05:42.113Z,101449.94
2022-10-05T03:08:41.464Z,101452.59
2022-10-05T03:11:15.272Z,101449.34
2022-10-05T03:13:48.341Z,101442.94
2022-10-05T03:16:29.178Z,101443.87
2022-10-05T03:18:55.792Z,101429.84
2022-10-05T03:21:51.793Z,101431.34
2022-10-05T03:24:27.263Z,101425.22
2022-10-05T03:26:56.641Z,101428.09
2022-10-05T03:29:42.103Z,101428.97
2022-10-05T03:32:11.738Z,101426.25
2022-10-05T03:34:58.583Z,101426.22
2022-10-05T03:37:28.457Z,101429.22
2022-10-05T03:40:01.417Z,101423.78
2022-10-05T03:42:35.861Z,101414.69
2022-10-05T03:45:02.423Z,101416.16
2022-10-05T03:47:34.618Z,101422.66
2022-10-05T03:50:01.230Z,101428.81
2022-10-05T03:52:32.201Z,101432.84
2022-10-05T03:55:05.870Z,101423.47
2022-10-05T03:57:38.537Z,101423.44
2022-10-05T04:00:07.345Z,101428.09
2022-10-05T04:02:37.150Z,101428.81
2022-10-05T04:05:10.022Z,101422.72
2022-10-05T04:07:42.912Z,101432.38
2022-10-05T04:10:16.280Z,101420.03
2022-10-05T04:12:46.355Z,101423.47
2022-10-05T04:15:19.237Z,101428.50
2022-10-05T04:17:47.300Z,101437.63
2022-10-05T04:20:23.099Z,101439.19
2022-10-05T04:22:52.472Z,101438.97
2022-10-05T04:25:24.064Z,101442.44
2022-10-05T04:27:54.909Z,101453.50
2022-10-05T04:30:24.501Z,101447.31
2022-10-05T04:32:55.942Z,101444.63
2022-10-05T04:35:41.105Z,101435.56
2022-10-05T04:38:10.986Z,101447.72
2022-10-05T04:40:37.550Z,101440.69
2022-10-05T04:43:09.362Z,101437.28
2022-10-05T04:45:45.219Z,101443.87
2022-10-05T04:48:27.801Z,101442.19
2022-10-05T04:51:13.541Z,101440.34
2022-10-05T04:53:46.626Z,101441.53
2022-10-05T04:56:18.282Z,101442.59
2022-10-05T04:59:04.609Z,101443.31
2022-10-05T05:01:31.183Z,101440.75
2022-10-05T05:03:57.822Z,101445.06
2022-10-05T05:06:43.179Z,101449.31
2022-10-05T05:09:15.987Z,101454.16
2022-10-05T05:12:01.260Z,101451.91
2022-10-05T05:14:43.343Z,101461.59
2022-10-05T05:17:20.772Z,101459.94
2022-10-05T05:19:56.541Z,101466.03
2022-10-05T05:22:41.861Z,101466.63
2022-10-05T05:25:21.976Z,101468.84
2022-10-05T05:27:48.756Z,101466.47
2022-10-05T05:30:24.318Z,101470.81
2022-10-05T05:33:09.613Z,101464.06
2022-10-05T05:35:45.346Z,101468.53
2022-10-05T05:38:21.232Z,101474.66
2022-10-05T05:40:47.822Z,101467.87
2022-10-05T05:43:20.610Z,101481.97
2022-10-05T05:45:57.626Z,101480.44
2022-10-05T05:48:31.333Z,101491.09
2022-10-05T05:51:04.950Z,101487.44
2022-10-05T05:53:38.479Z,101488.25
2022-10-05T05:56:42.009Z,101493.12
2022-10-05T05:59:14.646Z,101496.88
2022-10-05T06:01:48.063Z,101508.41
2022-10-05T06:04:22.846Z,101499.16
2022-10-05T06:06:51.809Z,101501.16
2022-10-05T06:09:24.885Z,101499.69
2022-10-05T06:11:54.282Z,101494.47
2022-10-05T06:14:34.458Z,101496.34
2022-10-05T06:17:04.166Z,101505.16
2022-10-05T06:19:32.604Z,101502.72
2022-10-05T06:22:04.484Z,101506.91
2022-10-05T06:24:35.050Z,101500.06
2022-10-05T06:27:14.560Z,101495.00
2022-10-05T06:29:59.921Z,101491.41
2022-10-05T06:32:29.607Z,101489.69
2022-10-05T06:35:01.962Z,101480.25
2022-10-05T06:37:34.361Z,101488.13
2022-10-05T06:40:08.470Z,101479.38
2022-10-05T06:43:10.652Z,101478.63
2022-10-05T06:45:46.530Z,101473.31
2022-10-05T06:48:23.057Z,101485.72
2022-10-05T06:51:02.159Z,101496.31
2022-10-05T06:53:28.910Z,101501.59
2022-10-05T06:56:02.045Z,101489.25
2022-10-05T06:58:35.055Z,101488.31
2022-10-05T07:01:26.010Z,101499.66
2022-10-05T07:04:03.071Z,101511.81
2022-10-05T07:06:43.871Z,101515.00
2022-10-05T07:09:29.624Z,101515.41
2022-10-05T07:12:00.814Z,101521.87
2022-10-05T07:14:56.716Z,101511.37
2022-10-05T07:17:23.403Z,101513.91
2022-10-05T07:20:02.309Z,101508.13
2022-10-05T07:22:41.220Z,101512.84
2022-10-05T07:25:08.699Z,101522.22
2022-10-05T07:27:47.127Z,101526.22
2022-10-05T07:30:17.810Z,101522.22
2022-10-05T07:32:47.494Z,101523.44
2022-10-05T07:35:35.990Z,101524.72
2022-10-05T07:38:13.191Z,101529.41
2022-10-05T07:40:45.279Z,101526.81
2022-10-05T07:43:32.037Z,101528.50
2022-10-05T07:46:27.222Z,101526.97
2022-10-05T07:49:03.602Z,101523.44
2022-10-05T07:51:45.343Z,101521.94
2022-10-05T07:54:31.143Z,101526.88
2022-10-05T07:57:06.379Z,101529.50
2022-10-05T07:59:56.963Z,101520.91
2022-10-05T08:02:34.118Z,101533.62
2022-10-05T08:05:06.847Z,101535.22
2022-10-05T08:07:35.468Z,101529.03
2022-10-05T08:10:14.652Z,101532.34
2022-10-05T08:12:50.451Z,101527.47
2022-10-05T08:15:21.358Z,101529.59
2022-10-05T08:17:59.312Z,101532.06
2022-10-05T08:21:01.350Z,101521.84
2022-10-05T08:23:31.002Z,101518.34
2022-10-05T08:25:57.642Z,101519.56
2022-10-05T08:28:26.550Z,101518.66
2022-10-05T08:30:56.394Z,101523.91
2022-10-05T08:33:24.004Z,101520.84
2022-10-05T08:35:56.032Z,101520.56
2022-10-05T08:38:29.092Z,101511.78
2022-10-05T08:41:14.249Z,101514.44
2022-10-05T08:43:59.870Z,101507.47
2022-10-05T08:46:45.412Z,101520.94
2022-10-05T08:49:34.992Z,101510.31
2022-10-05T08:52:08.288Z,101516.22
2022-10-05T08:54:44.341Z,101519.25
2022-10-05T08:57:20.612Z,101513.53
2022-10-05T08:59:59.310Z,101499.09
2022-10-05T09:02:40.936Z,101490.31
2022-10-05T09:05:10.842Z,101488.25
2022-10-05T09:07:50.693Z,101489.22
2022-10-05T09:10:29.996Z,101489.12
2022-10-05T09:13:02.628Z,101489.28
2022-10-05T09:15:48.169Z,101490.41
2022-10-05T09:18:20.831Z,101491.56
2022-10-05T09:20:54.802Z,101491.00
2022-10-05T09:23:21.530Z,101485.03
2022-10-05T09:25:56.574Z,101494.09
2022-10-05T09:28:25.139Z,101484.25
2022-10-05T09:30:55.099Z,101484.22
2022-10-05T09:33:31.320Z,101488.59
2022-10-05T09:36:17.001Z,101483.91
2022-10-05T09:38:43.678Z,101472.75
2022-10-05T09:41:29.252Z,101466.94
2022-10-05T09:44:14.630Z,101459.66
2022-10-05T09:46:44.187Z,101459.84
2022-10-05T09:49:40.143Z,101464.56
2022-10-05T09:52:26.481Z,101468.72
2022-10-05T09:54:57.241Z,101470.16
2022-10-05T09:57:36.343Z,101471.25
2022-10-05T10:00:32.129Z,101461.34
2022-10-05T10:03:13.803Z,101454.47
2022-10-05T10:05:59.606Z,101462.47
2022-10-05T10:08:38.322Z,101462.00
2022-10-05T10:11:11.921Z,101451.28
2022-10-05T10:13:47.705Z,101447.84
2022-10-05T10:16:23.819Z,101447.66
2022-10-05T10:18:59.716Z,101449.22
2022-10-05T10:21:42.694Z,101446.50
2022-10-05T10:24:32.382Z,101450.28
2022-10-05T10:27:22.479Z,101456.91
2022-10-05T10:30:08.081Z,101463.94
2022-10-05T10:33:02.532Z,101455.94
2022-10-05T10:35:34.904Z,101460.78
2022-10-05T10:38:02.962Z,101446.84
2022-10-05T10:40:43.247Z,101461.66
2022-10-05T10:43:13.079Z,101448.06
2022-10-05T10:45:46.590Z,101453.00
2022-10-05T10:48:19.124Z,101454.13
2022-10-05T10:51:05.025Z,101443.72
2022-10-05T10:53:50.292Z,101453.19
2022-10-05T10:56:16.941Z,101443.06
2022-10-05T10:58:49.528Z,101442.00
2022-10-05T11:01:28.646Z,101444.94
2022-10-05T11:04:07.743Z,101438.44
2022-10-05T11:06:43.604Z,101427.97
2022-10-05T11:09:10.296Z,101426.37
2022-10-05T11:11:56.426Z,101426.09
2022-10-05T11:14:42.601Z,101416.25
2022-10-05T11:17:31.942Z,101420.81
2022-10-05T11:20:05.416Z,101413.44
2022-10-05T11:22:42.122Z,101413.72
2022-10-05T11:25:20.095Z,101413.78
2022-10-05T11:27:47.263Z,101415.94
2022-10-05T11:30:21.689Z,101410.75
2022-10-05T11:33:11.426Z,101412.81
2022-10-05T11:35:56.843Z,101401.41
2022-10-05T11:38:26.701Z,101409.97
2022-10-05T11:41:12.212Z,101407.41
2022-10-05T11:43:45.050Z,101418.88
2022-10-05T11:46:39.421Z,101407.44
2022-10-05T11:49:15.360Z,101394.25
2022-10-05T11:51:42.215Z,101403.37
2022-10-05T11:54:21.974Z,101399.13
2022-10-05T11:56:50.887Z,101388.84
2022-10-05T11:59:30.622Z,101389.63
2022-10-05T12:02:14.190Z,101396.69
2022-10-05T12:04:40.981Z,101392.53
2022-10-05T12:07:13.880Z,101397.78
2022-10-05T12:09:40.572Z,101388.19
2022-10-05T12:12:14.131Z,101385.78
2022-10-05T12:15:03.492Z,101387.88
2022-10-05T12:17:37.963Z,101387.59
2022-10-05T12:20:14.682Z,101388.03
2022-10-05T12:22:43.505Z,101384.72
2022-10-05T12:25:19.592Z,101375.16
2022-10-05T12:27:48.313Z,101366.19
2022-10-05T12:30:25.636Z,101377.31
2022-10-05T12:33:12.632Z,101375.84
2022-10-05T12:35:49.308Z,101373.16
2022-10-05T12:38:22.349Z,101365.69
2022-10-05T12:40:53.557Z,101364.78
2022-10-05T12:43:29.255Z,101355.94
2022-10-05T12:45:59.167Z,101371.81
2022-10-05T12:48:37.293Z,101366.78
2022-10-05T12:51:09.762Z,101359.59
2022-10-05T12:53:42.649Z,101366.25
2022-10-05T12:56:09.652Z,101357.47
2022-10-05T12:58:55.591Z,101367.25
2022-10-05T13:02:00.816Z,101349.59
2022-10-05T13:04:47.133Z,101361.91
2022-10-05T13:07:22.578Z,101360.88
2022-10-05T13:09:49.237Z,101360.53
2022-10-05T13:12:35.608Z,101360.53
2022-10-05T13:15:05.432Z,101359.16
2022-10-05T13:17:41.375Z,101351.78
2022-10-05T13:20:16.331Z,101360.56
2022-10-05T13:22:46.892Z,101350.28
2022-10-05T13:25:35.184Z,101360.53
2022-10-05T13:28:01.904Z,101362.37
2022-10-05T13:30:29.481Z,101362.22
2022-10-05T13:33:04.639Z,101358.56
2022-10-05T13:35:37.295Z,101357.25
2022-10-05T13:38:06.997Z,101358.06
2022-10-05T13:40:53.891Z,101357.78
2022-10-05T13:43:44.245Z,101364.28
2022-10-05T13:46:29.235Z,101365.09
2022-10-05T13:49:14.553Z,101356.53
2022-10-05T13:52:01.773Z,101349.56
2022-10-05T13:54:28.437Z,101344.00
2022-10-05T13:56:59.397Z,101338.41
2022-10-05T13:59:44.892Z,101336.69
2022-10-05T14:02:16.171Z,101330.75
2022-10-05T14:04:48.370Z,101334.53
2022-10-05T14:07:30.970Z,101324.38
2022-10-05T14:09:59.127Z,101323.78
2022-10-05T14:12:26.454Z,101321.81
2022-10-05T14:14:54.391Z,101323.94
2022-10-05T14:17:33.532Z,101329.16
2022-10-05T14:20:01.364Z,101330.97
2022-10-05T14:22:28.166Z,101324.72
2022-10-05T14:25:10.322Z,101333.47
2022-10-05T14:27:58.333Z,101327.88
2022-10-05T14:30:26.251Z,101325.31
2022-10-05T14:32:52.893Z,101330.25
2022-10-05T14:35:24.291Z,101322.31
2022-10-05T14:37:53.952Z,101324.72
2022-10-05T14:40:22.321Z,101322.09
2022-10-05T14:42:50.122Z,101317.69
2022-10-05T14:45:19.481Z,101317.97
2022-10-05T14:47:53.952Z,101314.50
2022-10-05T14:50:26.246Z,101308.66
2022-10-05T14:53:11.695Z,101314.81
2022-10-05T14:55:51.951Z,101303.72
2022-10-05T14:58:31.002Z,101310.88
2022-10-05T15:01:16.705Z,101307.16
2022-10-05T15:03:48.734Z,101306.12
2022-10-05T15:06:22.997Z,101303.06
2022-10-05T15:09:01.285Z,101301.91
2022-10-05T15:11:31.035Z,101296.19
2022-10-05T15:13:58.318Z,101298.31
2022-10-05T15:16:32.022Z,101290.06
2022-10-05T15:19:18.495Z,101291.97
2022-10-05T15:21:57.713Z,101289.09
2022-10-05T15:24:27.231Z,101285.50
2022-10-05T15:26:55.871Z,101297.81
2022-10-05T15:29:42.416Z,101296.84
2022-10-05T15:32:23.521Z,101296.03
2022-10-05T15:34:57.790Z,101298.69
2022-10-05T15:37:33.251Z,101288.47
2022-10-05T15:40:02.762Z,101290.63
2022-10-05T15:42:39.556Z,101292.13
2022-10-05T15:45:19.900Z,101292.75
2022-10-05T15:47:59.627Z,101294.34
2022-10-05T15:50:28.446Z,101289.50
2022-10-05T15:52:55.583Z,101298.34
2022-10-05T15:55:41.387Z,101299.13
2022-10-05T15:58:17.702Z,101293.38
2022-10-05T16:00:50.133Z,101295.72
2022-10-05T16:03:29.627Z,101297.84
2022-10-05T16:06:15.104Z,101305.19
2022-10-05T16:09:00.992Z,101292.75
2022-10-05T16:11:27.642Z,101296.72
2022-10-05T16:14:20.871Z,101303.19
2022-10-05T16:17:06.418Z,101303.34
2022-10-05T16:19:33.228Z,101308.63
2022-10-05T16:22:18.781Z,101302.81
2022-10-05T16:24:47.492Z,101302.72
2022-10-05T16:27:22.807Z,101303.88
2022-10-05T16:30:08.824Z,101304.78
2022-10-05T16:32:50.277Z,101304.78
2022-10-05T16:35:20.142Z,101315.88
2022-10-05T16:38:03.011Z,101302.38
2022-10-05T16:40:41.872Z,101308.09
2022-10-05T16:43:29.541Z,101306.16
2022-10-05T16:45:59.221Z,101328.59
2022-10-05T16:48:29.261Z,101326.34
2022-10-05T16:51:07.901Z,101322.22
2022-10-05T16:53:38.841Z,101319.22
2022-10-05T16:56:16.941Z,101326.06
2022-10-05T16:59:04.444Z,101329.13
2022-10-05T17:01:31.316Z,101327.22
2022-10-05T17:04:03.795Z,101323.53
2022-10-05T17:06:40.282Z,101319.78
2022-10-05T17:09:24.221Z,101322.72
2022-10-05T17:11:56.827Z,101325.19
2022-10-05T17:14:42.705Z,101323.28
2022-10-05T17:17:21.714Z,101327.38
2022-10-05T17:19:57.510Z,101329.84
2022-10-05T17:22:29.301Z,101321.50
2022-10-05T17:25:04.151Z,101332.53
2022-10-05T17:27:33.941Z,101324.72
2022-10-05T17:30:19.035Z,101325.03
2022-10-05T17:32:55.580Z,101330.06
2022-10-05T17:35:41.096Z,101326.25
2022-10-05T17:38:14.670Z,101328.44
2022-10-05T17:41:03.263Z,101331.94
2022-10-05T17:43:33.965Z,101328.66
2022-10-05T17:46:02.223Z,101334.38
2022-10-05T17:48:38.200Z,101337.38
2022-10-05T17:51:46.753Z,101343.25
2022-10-05T17:54:41.308Z,101346.81
2022-10-05T17:57:08.019Z,101342.88
2022-10-05T17:59:34.832Z,101351.06
2022-10-05T18:02:22.191Z,101346.03
2022-10-05T18:04:50.507Z,101340.22
2022-10-05T18:07:22.063Z,101338.22
2022-10-05T18:09:55.982Z,101351.38
2022-10-05T18:12:24.427Z,101345.78
2022-10-05T18:15:00.445Z,101355.25
2022-10-05T18:17:33.113Z,101365.28
2022-10-05T18:20:18.271Z,101370.34
2022-10-05T18:22:46.994Z,101373.16
2022-10-05T18:25:26.220Z,101370.69
2022-10-05T18:28:01.012Z,101370.09
2022-10-05T18:30:31.351Z,101368.87
2022-10-05T18:33:11.412Z,101369.25
2022-10-05T18:35:56.091Z,101363.03
2022-10-05T18:38:33.322Z,101380.88
2022-10-05T18:41:05.272Z,101375.94
2022-10-05T18:43:42.072Z,101375.47
2022-10-05T18:46:32.307Z,101373.53
2022-10-05T18:49:02.019Z,101381.78
2022-10-05T18:51:32.025Z,101376.91
2022-10-05T18:54:06.459Z,101372.94
2022-10-05T18:56:35.911Z,101372.69
2022-10-05T18:59:02.602Z,101370.66
2022-10-05T19:01:32.530Z,101380.75
2022-10-05T19:04:16.135Z,101374.94
2022-10-05T19:06:42.901Z,101378.44
2022-10-05T19:09:18.719Z,101378.81
2022-10-05T19:11:55.270Z,101376.78
2022-10-05T19:14:21.970Z,101385.13
2022-10-05T19:16:51.471Z,101378.94
2022-10-05T19:19:36.952Z,101387.72
2022-10-05T19:22:33.634Z,101385.38
2022-10-05T19:25:00.328Z,101391.22
2022-10-05T19:27:36.071Z,101395.97
2022-10-05T19:30:15.755Z,101390.81
2022-10-05T19:33:01.256Z,101394.56
2022-10-05T19:35:34.085Z,101389.37
2022-10-05T19:38:23.823Z,101393.44
2022-10-05T19:40:52.912Z,101387.72
2022-10-05T19:43:19.539Z,101403.97
2022-10-05T19:45:58.964Z,101401.22
2022-10-05T19:48:32.736Z,101398.59
2022-10-05T19:51:00.686Z,101404.03
2022-10-05T19:53:30.222Z,101401.31
2022-10-05T19:56:10.630Z,101403.09
2022-10-05T19:58:40.027Z,101405.50
2022-10-05T20:01:11.522Z,101411.03
2022-10-05T20:03:38.312Z,101406.28
2022-10-05T20:06:06.401Z,101410.88
2022-10-05T20:08:44.141Z,101414.62
2022-10-05T20:11:15.473Z,101410.69
2022-10-05T20:14:02.672Z,101415.41
2022-10-05T20:16:48.827Z,101421.06
2022-10-05T20:19:48.348Z,101419.47
2022-10-05T20:22:30.462Z,101422.63
2022-10-05T20:25:01.387Z,101425.09
2022-10-05T20:27:34.214Z,101428.34
2022-10-05T20:30:02.662Z,101424.88
2022-10-05T20:32:30.840Z,101426.22
2022-10-05T20:34:57.694Z,101417.38
2022-10-05T20:37:24.462Z,101422.38
2022-10-05T20:39:54.018Z,101430.28
2022-10-05T20:42:21.350Z,101429.25
2022-10-05T20:44:51.790Z,101428.66
2022-10-05T20:47:20.980Z,101433.28
2022-10-05T20:49:47.553Z,101427.50
2022-10-05T20:52:15.990Z,101422.53
2022-10-05T20:54:42.720Z,101425.44
2022-10-05T20:57:09.516Z,101428.12
2022-10-05T20:59:36.751Z,101426.09
2022-10-05T21:02:04.112Z,101421.16
2022-10-05T21:04:40.339Z,101418.06
2022-10-05T21:07:07.332Z,101418.78
2022-10-05T21:09:33.933Z,101429.75
2022-10-05T21:12:00.551Z,101428.78
2022-10-05T21:14:30.801Z,101424.97
2022-10-05T21:16:57.411Z,101425.91
2022-10-05T21:19:24.032Z,101426.50
2022-10-05T21:21:50.681Z,101428.22
2022-10-05T21:24:17.502Z,101422.81
2022-10-05T21:26:44.575Z,101420.81
2022-10-05T21:29:13.039Z,101424.47
2022-10-05T21:31:39.942Z,101427.34
2022-10-05T21:34:06.723Z,101426.34
2022-10-05T21:36:33.631Z,101423.63
2022-10-05T21:39:00.361Z,101420.50
2022-10-05T21:41:27.301Z,101426.66
2022-10-05T21:43:54.033Z,101421.22
2022-10-05T21:46:22.253Z,101425.56
2022-10-05T21:48:49.642Z,101415.72
2022-10-05T21:51:17.810Z,101426.41
2022-10-05T21:53:52.623Z,101427.78
2022-10-05T21:56:21.561Z,101424.97
2022-10-05T21:58:48.613Z,101416.00
2022-10-05T22:01:18.884Z,101426.16
2022-10-05T22:03:48.451Z,101424.78
2022-10-05T22:06:15.275Z,101413.78
2022-10-05T22:08:41.883Z,101419.50
2022-10-05T22:11:10.192Z,101409.06
2022-10-05T22:13:55.442Z,101413.84
2022-10-05T22:16:23.975Z,101416.13
2022-10-05T22:18:50.747Z,101421.03
2022-10-05T22:21:17.461Z,101415.38
2022-10-05T22:23:45.455Z,101403.84
2022-10-05T22:26:15.212Z,101413.16
2022-10-05T22:28:42.833Z,101406.81
2022-10-05T22:31:10.560Z,101409.72
2022-10-05T22:33:41.032Z,101409.31
2022-10-05T22:36:08.291Z,101407.75
2022-10-05T22:38:35.003Z,101404.16
2022-10-05T22:41:01.823Z,101411.16
2022-10-05T22:43:28.541Z,101408.56
2022-10-05T22:45:55.397Z,101406.34
2022-10-05T22:48:22.302Z,101413.69
2022-10-05T22:50:49.458Z,101414.22
2022-10-05T22:53:16.289Z,101408.97
2022-10-05T22:55:42.893Z,101409.78
2022-10-05T22:58:09.470Z,101412.56
2022-10-05T23:00:56.868Z,101415.78
2022-10-05T23:03:22.720Z,101412.06
2022-10-05T23:05:55.741Z,101413.47
2022-10-05T23:08:22.331Z,101413.37
2022-10-05T23:10:48.981Z,101411.78
2022-10-05T23:13:15.622Z,101424.41
2022-10-05T23:15:42.662Z,101415.25
2022-10-05T23:18:09.243Z,101423.34
2022-10-05T23:20:35.941Z,101421.38
2022-10-05T23:23:02.723Z,101415.88
2022-10-05T23:25:29.426Z,101421.34
2022-10-05T23:27:56.149Z,101419.47
2022-10-05T23:30:22.823Z,101422.06
2022-10-05T23:32:49.540Z,101419.22
2022-10-05T23:35:16.264Z,101427.97
2022-10-05T23:37:44.020Z,101424.41
2022-10-05T23:40:12.400Z,101422.59
2022-10-05T23:42:40.021Z,101419.09
2022-10-05T23:45:07.499Z,101415.50
2022-10-05T23:47:34.173Z,101428.12
2022-10-05T23:50:01.654Z,101422.19
2022-10-05T23:52:28.271Z,101418.47
2022-10-05T23:54:54.991Z,101424.50
2022-10-05T23:57:21.711Z,101430.81
2022-10-05T23:59:50.471Z,101427.31
